Time;durP1;ratioP1;P1;durP2;ratioP2;P2;SDS_P1;SDS_P2;PMS_P1;PMS_P2;Temp;Humidity;BMP_temperature;BMP_pressure;BME280_temperature;BME280_humidity;BME280_pressure;Samples;Min_cycle;Max_cycle;Signal;HPM_P1;HPM_P2
2024/01/30 00:01:36;;;;;;;;;31.75;28.75;;;;;12.14;71.95;102032.16;5124214;27;48417;-82
2024/01/30 00:04:02;;;;;;;;;27.50;27.50;;;;;12.22;71.42;102046.03;5120154;27;45889;-81
2024/01/30 00:06:27;;;;;;;;;37.25;29.50;;;;;12.19;71.89;102040.84;5119773;27;45334;-81
2024/01/30 00:08:53;;;;;;;;;25.00;25.00;;;;;12.17;71.86;102037.38;5133008;27;45460;-80
2024/01/30 00:11:18;;;;;;;;;24.00;24.00;;;;;12.10;72.28;102019.84;5140874;27;45592;-82
2024/01/30 00:13:44;;;;;;;;;26.25;22.75;;;;;12.13;72.05;102027.75;5122935;27;46228;-81
2024/01/30 00:16:20;;;;;;;;;23.00;21.25;;;;;12.05;72.36;102021.84;5118210;27;64363;-82
2024/01/30 00:18:45;;;;;;;;;28.75;27.75;;;;;12.03;72.45;102032.56;5118924;27;45393;-83
2024/01/30 00:21:11;;;;;;;;;28.00;26.75;;;;;11.91;72.51;102006.41;5119756;27;45477;-83
2024/01/30 00:23:36;;;;;;;;;21.75;21.50;;;;;12.04;72.42;102039.66;5120736;27;45661;-83
2024/01/30 00:26:02;;;;;;;;;24.25;21.25;;;;;12.06;72.42;102039.59;5119263;27;65670;-80
2024/01/30 00:28:27;;;;;;;;;23.25;21.75;;;;;12.05;72.39;102035.19;5129077;27;45407;-81
2024/01/30 00:30:52;;;;;;;;;26.75;26.50;;;;;12.11;72.45;102040.28;5141085;27;45467;-83
2024/01/30 00:33:18;;;;;;;;;21.00;21.00;;;;;12.14;72.65;102044.63;5139283;27;45838;-82
2024/01/30 00:35:43;;;;;;;;;21.00;21.00;;;;;12.18;72.43;102049.78;5140006;27;45382;-82
2024/01/30 00:38:09;;;;;;;;;33.25;27.75;;;;;12.19;72.35;102047.97;5139339;27;45401;-81
2024/01/30 00:40:34;;;;;;;;;34.75;25.00;;;;;12.19;72.42;102045.31;5140366;27;45373;-82
2024/01/30 00:42:59;;;;;;;;;21.25;21.25;;;;;12.15;72.79;102039.22;5124450;27;45811;-82
2024/01/30 00:45:25;;;;;;;;;28.00;24.00;;;;;12.21;72.25;102054.97;5118928;27;45404;-81
2024/01/30 00:47:50;;;;;;;;;27.50;24.75;;;;;12.25;72.74;102053.94;5119388;27;45188;-81
2024/01/30 00:50:15;;;;;;;;;30.50;25.50;;;;;12.22;72.42;102046.03;5119400;27;45538;-81
2024/01/30 00:52:42;;;;;;;;;23.50;22.75;;;;;12.26;72.23;102055.69;5118668;27;46037;-81
2024/01/30 00:55:07;;;;;;;;;22.50;21.25;;;;;12.25;72.44;102051.28;5118142;27;45369;-81
2024/01/30 00:57:33;;;;;;;;;20.50;20.50;;;;;12.27;72.39;102046.75;5118985;27;45383;-84
2024/01/30 00:59:58;;;;;;;;;22.00;22.00;;;;;12.27;72.29;102041.41;5118871;27;45346;-81
2024/01/30 01:02:23;;;;;;;;;27.50;25.00;;;;;12.26;72.28;102037.00;5099633;27;47476;-80
2024/01/30 01:04:49;;;;;;;;;22.25;21.00;;;;;12.17;72.07;102018.69;5118881;27;45359;-82
2024/01/30 01:07:14;;;;;;;;;27.25;23.25;;;;;12.31;72.18;102034.16;5118404;27;54093;-80
2024/01/30 01:09:39;;;;;;;;;20.00;18.67;;;;;12.32;72.17;102044.75;5119451;27;45258;-82
2024/01/30 01:12:05;;;;;;;;;21.67;19.00;;;;;12.20;72.20;102026.56;5118358;27;45403;-82
2024/01/30 01:14:30;;;;;;;;;16.33;14.67;;;;;12.36;72.54;102046.34;5118721;27;45538;-82
2024/01/30 01:16:56;;;;;;;;;21.50;21.50;;;;;12.26;72.42;102018.34;5118732;27;45262;-81
2024/01/30 01:19:21;;;;;;;;;21.75;19.00;;;;;12.28;72.37;102019.13;5118029;27;57974;-80
2024/01/30 01:21:47;;;;;;;;;21.50;16.00;;;;;12.36;72.98;102033.00;5118144;27;45459;-81
2024/01/30 01:24:12;;;;;;;;;21.00;18.00;;;;;12.32;72.57;102028.75;5118894;27;45307;-81
2024/01/30 01:26:37;;;;;;;;;25.00;19.00;;;;;12.26;72.59;102012.13;5118902;27;45545;-81
2024/01/30 01:29:09;;;;;;;;;21.25;21.25;;;;;12.38;72.74;102038.31;5132690;27;46201;-83
2024/01/30 01:31:39;;;;;;;;;22.75;19.50;;;;;12.35;72.45;102025.94;5131690;27;45626;-83
2024/01/30 01:34:05;;;;;;;;;21.00;18.75;;;;;12.36;72.23;102026.81;5118668;27;45247;-82
2024/01/30 01:36:30;;;;;;;;;21.50;19.75;;;;;12.31;72.53;102011.00;5118291;27;45566;-83
2024/01/30 01:38:55;;;;;;;;;21.67;20.33;;;;;12.46;72.66;102038.84;5117894;27;60916;-81
2024/01/30 01:41:21;;;;;;;;;26.33;21.67;;;;;12.48;72.51;102030.78;5120349;27;67561;-81
2024/01/30 01:43:46;;;;;;;;;26.00;20.75;;;;;12.39;72.42;102027.59;5129135;27;45355;-82
2024/01/30 01:46:11;;;;;;;;;21.00;21.00;;;;;12.26;71.97;102002.34;5118469;27;45294;-82
2024/01/30 01:48:39;;;;;;;;;23.75;22.25;;;;;12.22;72.68;102006.03;5118598;27;45218;-82
2024/01/30 01:51:05;;;;;;;;;21.75;19.75;;;;;12.26;72.38;102023.66;5117995;27;45702;-82
2024/01/30 01:53:31;;;;;;;;;25.25;22.50;;;;;12.28;72.47;102021.81;5117474;27;45511;-83
2024/01/30 01:55:56;;;;;;;;;21.00;20.00;;;;;12.23;72.87;102017.56;5128558;27;45390;-80
2024/01/30 01:58:23;;;;;;;;;31.50;26.75;;;;;12.23;73.05;102033.56;5117970;27;45389;-82
2024/01/30 02:00:50;;;;;;;;;25.75;25.75;;;;;12.19;72.93;102027.50;5099804;27;46325;-82
2024/01/30 02:03:18;;;;;;;;;22.00;21.00;;;;;12.07;73.24;102022.66;5119816;27;45257;-83
2024/01/30 02:05:43;;;;;;;;;24.25;22.00;;;;;12.01;73.53;102023.78;5138916;27;45324;-81
2024/01/30 02:08:09;;;;;;;;;26.00;25.25;;;;;12.01;73.88;102033.56;5133030;27;45475;-80
2024/01/30 02:10:34;;;;;;;;;18.25;18.25;;;;;11.97;74.24;102032.81;5138424;27;45328;-81
2024/01/30 02:12:59;;;;;;;;;26.25;22.50;;;;;11.87;74.23;102022.59;5136258;27;45187;-81
2024/01/30 02:15:25;;;;;;;;;25.50;25.50;;;;;11.93;74.61;102035.66;5138595;27;45414;-81
2024/01/30 02:17:50;;;;;;;;;19.00;15.25;;;;;11.87;74.56;102030.56;5138118;27;45482;-80
2024/01/30 02:20:15;;;;;;;;;19.33;19.33;;;;;11.87;75.12;102036.78;5138283;27;49306;-81
2024/01/30 02:22:42;;;;;;;;;24.25;19.00;;;;;11.77;75.34;102022.88;5135202;27;45470;-81
2024/01/30 02:25:08;;;;;;;;;19.50;19.50;;;;;11.78;75.67;102023.75;5115389;27;45529;-82
2024/01/30 02:27:33;;;;;;;;;26.00;25.75;;;;;11.85;75.84;102021.75;5117901;27;45598;-81
2024/01/30 02:29:58;;;;;;;;;24.50;24.50;;;;;11.69;75.66;101994.78;5117424;27;46172;-81
2024/01/30 02:32:24;;;;;;;;;20.00;17.25;;;;;11.84;75.98;102028.88;5129094;27;59324;-80
2024/01/30 02:34:49;;;;;;;;;18.00;16.50;;;;;11.80;75.98;102013.94;5124523;27;45557;-82
2024/01/30 02:37:14;;;;;;;;;20.25;19.00;;;;;11.78;76.40;101997.97;5121524;27;45308;-82
2024/01/30 02:39:40;;;;;;;;;21.25;19.50;;;;;11.88;76.24;102016.31;5121484;27;49518;-83
2024/01/30 02:42:05;;;;;;;;;22.75;21.75;;;;;11.91;76.08;102017.06;5127923;27;45530;-82
2024/01/30 02:44:30;;;;;;;;;18.50;17.00;;;;;11.91;76.15;102022.38;5137088;27;45261;-81
2024/01/30 02:46:56;;;;;;;;;21.00;17.00;;;;;11.93;76.14;102019.66;5140894;27;59449;-81
2024/01/30 02:49:22;;;;;;;;;23.00;19.50;;;;;11.88;76.69;102019.84;5137809;27;45828;-80
2024/01/30 02:51:47;;;;;;;;;18.00;16.50;;;;;11.87;76.71;102025.25;5130000;27;45534;-81
2024/01/30 02:54:12;;;;;;;;;15.00;13.33;;;;;11.89;76.85;102029.59;5130650;27;59760;-80
2024/01/30 02:56:37;;;;;;;;;21.00;20.00;;;;;11.84;77.14;102009.34;5138551;27;45220;-83
2024/01/30 02:59:03;;;;;;;;;18.75;15.25;;;;;11.75;76.90;101992.78;5137859;27;45357;-80
2024/01/30 03:01:28;;;;;;;;;15.75;14.25;;;;;11.89;77.49;102002.94;5120070;27;46203;-80
2024/01/30 03:03:53;;;;;;;;;13.75;13.75;;;;;12.02;77.08;102011.31;5127942;27;45269;-81
2024/01/30 03:06:20;;;;;;;;;14.50;13.25;;;;;12.05;76.93;102001.38;5137770;27;57110;-81
2024/01/30 03:08:45;;;;;;;;;18.75;14.75;;;;;12.08;77.19;102019.06;5137509;27;46180;-81
2024/01/30 03:11:10;;;;;;;;;13.50;13.50;;;;;12.07;77.15;102022.66;5134651;27;45431;-81
2024/01/30 03:13:36;;;;;;;;;19.25;14.50;;;;;11.98;76.99;102007.00;5125771;27;45678;-81
2024/01/30 03:16:01;;;;;;;;;18.75;16.75;;;;;11.93;77.14;102014.31;5137494;27;45387;-81
2024/01/30 03:18:27;;;;;;;;;20.50;18.75;;;;;11.97;77.24;102026.59;5137348;27;46264;-81
2024/01/30 03:20:52;;;;;;;;;17.50;16.50;;;;;11.94;77.03;102021.41;5136385;27;45553;-82
2024/01/30 03:23:17;;;;;;;;;18.33;16.33;;;;;11.91;77.40;102026.84;5126946;27;45462;-83
2024/01/30 03:25:43;;;;;;;;;14.33;10.67;;;;;11.82;77.05;102007.63;5141658;27;45416;-81
2024/01/30 03:28:08;;;;;;;;;17.00;14.25;;;;;11.79;77.58;102013.06;5141185;27;46063;-81
2024/01/30 03:30:34;;;;;;;;;16.75;16.75;;;;;11.77;78.25;102022.88;5139605;27;56132;-82
2024/01/30 03:33:00;;;;;;;;;18.75;18.75;;;;;11.70;77.97;102020.50;5139945;27;45924;-82
2024/01/30 03:35:25;;;;;;;;;17.00;17.00;;;;;11.59;78.31;102020.03;5140606;27;51962;-81
2024/01/30 03:37:50;;;;;;;;;17.50;17.50;;;;;11.60;78.65;102025.34;5140910;27;55517;-80
2024/01/30 03:40:16;;;;;;;;;13.25;13.25;;;;;11.54;78.98;102025.53;5140401;27;60495;-83
2024/01/30 03:42:41;;;;;;;;;15.50;11.50;;;;;11.47;79.09;102016.06;5138906;27;45455;-82
2024/01/30 03:45:07;;;;;;;;;11.75;11.75;;;;;11.49;79.59;102032.84;5140354;27;58467;-81
2024/01/30 03:47:32;;;;;;;;;16.50;16.00;;;;;11.38;79.87;102024.38;5117858;27;46134;-81
2024/01/30 03:49:57;;;;;;;;;17.50;17.50;;;;;11.45;80.09;102039.19;5119812;27;54414;-81
2024/01/30 03:52:23;;;;;;;;;15.75;15.75;;;;;11.38;80.21;102021.72;5120056;27;45999;-78
2024/01/30 03:54:48;;;;;;;;;16.00;13.50;;;;;11.45;80.49;102017.88;5119794;27;45263;-79
2024/01/30 03:57:14;;;;;;;;;12.75;11.25;;;;;11.41;80.69;102021.59;5118927;27;45183;-81
2024/01/30 03:59:42;;;;;;;;;12.75;11.75;;;;;11.41;80.35;102021.59;5119985;27;45318;-81
2024/01/30 04:02:07;;;;;;;;;9.75;9.75;;;;;11.40;80.87;102019.88;5120143;27;45376;-80
2024/01/30 04:04:32;;;;;;;;;17.00;13.33;;;;;11.41;80.87;102001.16;5119203;27;45570;-80
2024/01/30 04:06:58;;;;;;;;;13.67;12.33;;;;;11.32;80.84;101996.16;5119358;27;50812;-80
2024/01/30 04:09:23;;;;;;;;;17.25;16.50;;;;;11.42;81.50;102018.00;5139432;27;53508;-80
2024/01/30 04:11:49;;;;;;;;;15.75;15.75;;;;;11.21;81.08;101991.25;5140997;27;45368;-82
2024/01/30 04:14:14;;;;;;;;;17.50;15.25;;;;;11.38;80.84;102013.72;5125428;27;45569;-81
2024/01/30 04:16:39;;;;;;;;;17.50;17.50;;;;;11.32;81.36;102021.94;5119354;27;46188;-82
2024/01/30 04:19:05;;;;;;;;;17.25;17.25;;;;;11.31;81.63;102009.53;5119554;27;45376;-82
2024/01/30 04:21:30;;;;;;;;;17.75;15.50;;;;;11.32;81.69;102006.81;5100746;27;54613;-82
2024/01/30 04:23:55;;;;;;;;;22.00;15.00;;;;;11.33;81.50;102008.59;5118885;27;45534;-81
2024/01/30 04:26:21;;;;;;;;;17.50;15.75;;;;;11.35;81.33;102003.19;5119550;27;46471;-81
2024/01/30 04:28:46;;;;;;;;;19.50;16.00;;;;;11.26;81.46;101995.53;5118972;27;45278;-82
2024/01/30 04:31:12;;;;;;;;;15.75;15.75;;;;;11.38;81.94;102005.75;5118609;27;50295;-80
2024/01/30 04:33:37;;;;;;;;;19.25;17.00;;;;;11.42;81.70;102008.22;5123815;27;45485;-79
2024/01/30 04:36:03;;;;;;;;;22.25;19.00;;;;;11.45;81.26;102004.56;5117580;27;46351;-80
2024/01/30 04:38:29;;;;;;;;;13.25;13.25;;;;;11.42;81.57;102004.69;5119333;27;45368;-80
2024/01/30 04:40:54;;;;;;;;;16.33;14.33;;;;;11.41;81.29;102002.94;5119780;27;45496;-80
2024/01/30 04:43:19;;;;;;;;;19.25;17.25;;;;;11.48;81.58;102004.47;5118957;27;45315;-80
2024/01/30 04:45:45;;;;;;;;;12.33;12.33;;;;;11.49;81.86;102014.19;5119010;27;45283;-80
2024/01/30 04:48:10;;;;;;;;;17.25;15.75;;;;;11.50;81.83;102015.94;5133826;27;45383;-81
2024/01/30 04:50:36;;;;;;;;;15.67;14.67;;;;;11.50;81.31;102018.59;5140119;27;45401;-81
2024/01/30 04:53:01;;;;;;;;;18.75;17.00;;;;;11.49;81.50;102016.88;5125260;27;45583;-82
2024/01/30 04:55:26;;;;;;;;;11.00;10.00;;;;;11.44;81.54;102021.47;5119097;27;46352;-81
2024/01/30 04:57:52;;;;;;;;;21.00;17.50;;;;;11.39;81.50;102002.16;5119320;27;45349;-81
2024/01/30 05:00:17;;;;;;;;;21.25;19.50;;;;;11.47;81.13;102024.06;5118605;27;48546;-80
2024/01/30 05:02:42;;;;;;;;;20.00;17.00;;;;;11.51;81.26;102033.66;5119180;27;45271;-82
2024/01/30 05:05:08;;;;;;;;;16.25;14.50;;;;;11.53;81.19;102029.13;5117990;27;45386;-81
2024/01/30 05:07:34;;;;;;;;;17.50;15.50;;;;;11.48;81.38;102017.81;5118884;27;45382;-82
2024/01/30 05:09:59;;;;;;;;;19.25;17.00;;;;;11.53;81.05;102026.47;5100476;27;45460;-81
2024/01/30 05:12:25;;;;;;;;;21.25;19.25;;;;;11.61;81.41;102024.41;5118916;27;45443;-83
2024/01/30 05:14:50;;;;;;;;;23.00;17.00;;;;;11.67;81.16;102032.16;5118451;27;46517;-81
2024/01/30 05:17:15;;;;;;;;;21.33;13.33;;;;;11.70;80.73;102034.69;5117925;27;62034;-81
2024/01/30 05:19:42;;;;;;;;;12.25;10.75;;;;;11.72;81.00;102037.34;5118792;27;45396;-83
2024/01/30 05:22:07;;;;;;;;;17.00;14.33;;;;;11.66;80.82;102029.56;5130526;27;45493;-84
2024/01/30 05:24:33;;;;;;;;;18.67;16.67;;;;;11.72;80.54;102032.88;5117169;27;46983;-81
2024/01/30 05:26:58;;;;;;;;;12.67;12.67;;;;;11.81;80.95;102053.84;5118650;27;45341;-80
2024/01/30 05:29:24;;;;;;;;;16.00;16.00;;;;;11.83;80.58;102061.78;5118915;27;45202;-81
2024/01/30 05:31:49;;;;;;;;;17.00;17.00;;;;;11.86;80.43;102056.38;5118616;27;45589;-81
2024/01/30 05:34:15;;;;;;;;;14.33;13.33;;;;;11.96;80.33;102059.53;5120109;27;46354;-79
2024/01/30 05:36:40;;;;;;;;;19.67;12.33;;;;;11.90;80.31;102057.97;5118975;27;45437;-80
2024/01/30 05:39:05;;;;;;;;;17.00;14.25;;;;;11.99;80.31;102067.44;5117887;27;45392;-81
2024/01/30 05:41:31;;;;;;;;;18.33;16.00;;;;;11.99;79.95;102062.97;5118144;27;45518;-82
2024/01/30 05:43:56;;;;;;;;;11.67;11.67;;;;;12.04;80.10;102071.66;5117656;27;46973;-81
2024/01/30 05:46:21;;;;;;;;;11.33;11.00;;;;;12.08;80.35;102072.38;5117983;27;45418;-80
2024/01/30 05:48:47;;;;;;;;;13.00;12.00;;;;;12.11;79.65;102072.28;5117154;27;45376;-81
2024/01/30 05:51:13;;;;;;;;;12.67;10.33;;;;;12.17;79.79;102079.16;5118470;27;45687;-81
2024/01/30 05:53:38;;;;;;;;;15.33;12.33;;;;;12.14;79.41;102071.28;5117304;27;45748;-83
2024/01/30 05:56:04;;;;;;;;;12.33;10.67;;;;;12.18;79.70;102089.78;5117983;27;45519;-80
2024/01/30 05:58:31;;;;;;;;;12.00;12.00;;;;;12.16;79.35;102072.97;5122122;27;45416;-82
2024/01/30 06:00:57;;;;;;;;;9.67;9.67;;;;;12.14;79.19;102077.50;5130612;27;45545;-81
2024/01/30 06:03:22;;;;;;;;;13.67;13.00;;;;;12.15;79.17;102079.22;5120860;27;46025;-81
2024/01/30 06:05:48;;;;;;;;;15.00;11.33;;;;;12.25;79.38;102075.28;5121427;27;45450;-83
2024/01/30 06:08:13;;;;;;;;;12.67;9.33;;;;;12.21;79.18;102081.66;5126748;27;45275;-82
2024/01/30 06:10:39;;;;;;;;;16.67;11.67;;;;;12.28;78.97;102099.16;5143947;27;45209;-81
2024/01/30 06:13:04;;;;;;;;;15.33;12.33;;;;;12.12;79.28;102066.03;5135213;27;45373;-82
2024/01/30 06:15:29;;;;;;;;;14.00;13.00;;;;;12.25;79.35;102095.75;5125563;27;50930;-81
2024/01/30 06:17:55;;;;;;;;;9.00;9.00;;;;;12.28;79.40;102101.84;5128329;27;45235;-82
2024/01/30 06:20:20;;;;;;;;;4.67;3.00;;;;;12.28;78.95;102096.50;5137559;27;45442;-83
2024/01/30 06:22:45;;;;;;;;;11.67;11.67;;;;;12.27;79.26;102094.75;5137648;27;50407;-81
2024/01/30 06:25:12;;;;;;;;;5.67;5.67;;;;;12.24;78.75;102110.91;5118274;27;58714;-83
2024/01/30 06:27:37;;;;;;;;;11.33;11.33;;;;;12.22;79.03;102095.84;5133606;27;45381;-83
2024/01/30 06:30:03;;;;;;;;;13.00;11.33;;;;;12.28;78.96;102109.84;5116838;27;45441;-85
2024/01/30 06:32:28;;;;;;;;;16.00;12.67;;;;;12.20;78.87;102098.59;5118864;27;45924;-82
2024/01/30 06:34:53;;;;;;;;;11.33;11.00;;;;;12.27;79.20;102102.75;5124539;27;45502;-83
2024/01/30 06:37:19;;;;;;;;;14.67;12.67;;;;;12.26;79.32;102109.03;5136456;27;45336;-83
2024/01/30 06:39:44;;;;;;;;;11.00;9.67;;;;;12.27;79.09;102113.44;5116519;27;45663;-84
2024/01/30 06:42:11;;;;;;;;;14.33;11.33;;;;;12.27;79.13;102117.91;5130306;27;46041;-82
2024/01/30 06:44:36;;;;;;;;;14.00;11.33;;;;;12.27;79.52;102116.09;5117965;27;45265;-83
2024/01/30 06:47:01;;;;;;;;;12.33;12.33;;;;;12.24;79.46;102112.66;5116547;27;57852;-85
2024/01/30 06:49:26;;;;;;;;;14.33;13.33;;;;;12.23;79.46;102113.59;5116302;27;45475;-83
2024/01/30 06:51:52;;;;;;;;;11.00;11.00;;;;;12.26;79.66;102127.72;5116380;27;57628;-84
2024/01/30 06:54:17;;;;;;;;;10.00;10.00;;;;;12.14;79.26;102098.84;5139373;27;45190;-83
2024/01/30 06:56:43;;;;;;;;;13.00;13.00;;;;;12.21;79.21;102104.78;5114436;27;45426;-84
2024/01/30 06:59:08;;;;;;;;;21.00;14.33;;;;;12.30;79.48;102121.31;5121075;27;45385;-83
2024/01/30 07:01:33;;;;;;;;;15.67;11.67;;;;;12.35;79.53;102127.31;5119120;27;45448;-83
2024/01/30 07:03:59;;;;;;;;;15.67;13.00;;;;;12.44;79.27;102128.78;5123096;27;45185;-84
2024/01/30 07:06:24;;;;;;;;;11.67;11.67;;;;;12.38;78.97;102118.34;5116370;27;45247;-82
2024/01/30 07:08:50;;;;;;;;;14.00;14.00;;;;;12.43;79.45;102131.50;5115721;27;45649;-82
2024/01/30 07:11:19;;;;;;;;;12.00;12.00;;;;;12.30;79.58;102104.44;5118530;27;45219;-84
2024/01/30 07:13:45;;;;;;;;;14.67;14.67;;;;;12.49;79.04;102141.91;5126311;27;45355;-87
2024/01/30 07:16:10;;;;;;;;;13.00;13.00;;;;;12.53;79.35;102147.09;5124756;27;45489;-84
2024/01/30 07:18:36;;;;;;;;;19.00;14.00;;;;;12.48;79.34;102135.72;5136588;27;45602;-86
2024/01/30 07:21:01;;;;;;;;;14.33;13.00;;;;;12.55;79.32;102141.69;5136506;27;46976;-85
2024/01/30 07:23:26;;;;;;;;;17.33;15.67;;;;;12.50;79.24;102133.88;5137727;27;47841;-85
2024/01/30 07:25:51;;;;;;;;;17.00;15.67;;;;;12.51;79.59;102140.09;5136084;27;56450;-86
2024/01/30 07:28:17;;;;;;;;;13.33;13.33;;;;;12.61;79.80;102149.44;5119546;27;45326;-85
2024/01/30 07:30:43;;;;;;;;;15.00;13.33;;;;;12.51;79.11;102138.28;5139438;27;45918;-86
2024/01/30 07:33:08;;;;;;;;;15.33;13.00;;;;;12.60;78.85;102161.91;5138612;27;45356;-84
2024/01/30 07:35:35;;;;;;;;;16.67;15.00;;;;;12.59;79.42;102160.19;5138127;27;45380;-84
2024/01/30 07:38:00;;;;;;;;;19.00;14.00;;;;;12.56;79.05;102154.09;5138312;27;45218;-85
2024/01/30 07:40:25;;;;;;;;;15.00;14.00;;;;;12.56;78.75;102146.97;5137490;27;47580;-85
2024/01/30 07:42:51;;;;;;;;;13.67;13.67;;;;;12.61;78.80;102160.13;5137317;27;52981;-85
2024/01/30 07:45:16;;;;;;;;;14.67;13.00;;;;;12.68;79.03;102175.84;5137602;27;45321;-83
2024/01/30 07:47:42;;;;;;;;;18.67;16.33;;;;;12.68;78.64;102180.31;5137952;27;45332;-84
2024/01/30 07:50:08;;;;;;;;;16.00;16.00;;;;;12.64;78.74;102171.56;5137259;27;45408;-82
2024/01/30 07:52:33;;;;;;;;;14.33;12.33;;;;;12.64;79.23;102186.72;5137701;27;45290;-85
2024/01/30 07:58:27;;;;;;;;;13.33;11.33;;;;;12.63;79.14;102191.19;5137657;27;45386;-84
2024/01/30 08:00:53;;;;;;;;;15.67;14.00;;;;;12.63;78.89;102188.50;5137187;27;45382;-83
2024/01/30 08:03:18;;;;;;;;;18.67;16.33;;;;;12.61;79.06;102176.13;5137689;27;45414;-86
2024/01/30 08:05:44;;;;;;;;;15.00;14.00;;;;;12.69;79.06;102198.06;5141146;27;45436;-84
2024/01/30 08:08:09;;;;;;;;;19.67;15.67;;;;;12.67;79.31;102187.47;5141400;27;45580;-85
2024/01/30 08:10:35;;;;;;;;;23.33;18.33;;;;;12.69;78.65;102190.94;5141446;27;45876;-85
2024/01/30 08:13:01;;;;;;;;;13.67;13.67;;;;;12.79;79.09;102214.59;5141106;27;45348;-84
2024/01/30 08:15:27;;;;;;;;;17.67;16.67;;;;;12.73;78.50;102198.81;5140898;27;45325;-85
2024/01/30 08:17:57;;;;;;;;;15.67;15.67;;;;;12.76;78.98;102196.91;5143276;27;45253;-84
2024/01/30 08:20:23;;;;;;;;;15.33;13.00;;;;;12.86;78.93;102221.41;5140779;27;45623;-86
2024/01/30 08:22:48;;;;;;;;;15.33;14.00;;;;;12.89;78.33;102227.53;5140751;27;45326;-85
2024/01/30 08:25:13;;;;;;;;;16.00;14.33;;;;;12.73;78.92;102197.00;5140444;27;48428;-82
2024/01/30 08:27:39;;;;;;;;;19.33;17.33;;;;;12.93;78.35;102234.47;5140801;27;45171;-85
2024/01/30 08:30:06;;;;;;;;;18.00;17.33;;;;;12.89;78.90;102227.53;5140077;27;57903;-84
2024/01/30 08:32:32;;;;;;;;;16.00;16.00;;;;;12.99;78.78;102239.56;5140430;27;45370;-84
2024/01/30 08:34:57;;;;;;;;;21.00;14.33;;;;;12.99;78.19;102241.38;5140413;27;45437;-83
2024/01/30 08:37:23;;;;;;;;;22.00;20.67;;;;;13.02;78.61;102245.72;5140723;27;45507;-83
2024/01/30 08:39:48;;;;;;;;;15.67;15.67;;;;;13.04;78.63;102238.53;5140216;27;46506;-85
2024/01/30 08:42:13;;;;;;;;;27.25;23.75;;;;;13.09;78.81;102249.88;5139337;27;64198;-84
2024/01/30 08:44:38;;;;;;;;;19.67;15.33;;;;;13.11;78.35;102243.56;5140348;27;45429;-84
2024/01/30 08:47:04;;;;;;;;;18.75;12.75;;;;;13.13;77.92;102246.16;5140480;27;45493;-85
2024/01/30 08:49:29;;;;;;;;;23.67;20.67;;;;;13.07;77.74;102241.94;5142677;27;46748;-84
2024/01/30 08:51:54;;;;;;;;;22.00;18.00;;;;;13.05;77.81;102238.47;5139989;27;45364;-84
2024/01/30 08:54:20;;;;;;;;;20.00;16.33;;;;;13.12;77.57;102253.31;5139958;27;53824;-85
2024/01/30 08:56:45;;;;;;;;;14.33;11.33;;;;;13.05;77.65;102248.28;5139488;27;60841;-83
2024/01/30 08:59:11;;;;;;;;;19.33;15.67;;;;;12.98;77.67;102245.84;5140361;27;45309;-83
2024/01/30 09:01:36;;;;;;;;;23.67;16.67;;;;;13.08;77.85;102265.06;5140592;27;45313;-85
2024/01/30 09:04:01;;;;;;;;;21.67;18.00;;;;;13.04;77.44;102270.59;5140470;27;45227;-85
2024/01/30 09:06:28;;;;;;;;;22.67;17.67;;;;;13.03;77.54;102271.50;5121766;27;45593;-85
2024/01/30 09:08:53;;;;;;;;;21.00;18.33;;;;;13.04;77.68;102283.94;5139952;27;46595;-86
2024/01/30 09:11:19;;;;;;;;;16.00;14.67;;;;;12.99;77.42;102282.28;5140314;27;45317;-84
2024/01/30 09:13:44;;;;;;;;;16.00;16.00;;;;;12.95;77.71;102272.69;5143523;27;45403;-84
2024/01/30 09:16:09;;;;;;;;;13.67;13.67;;;;;12.97;77.52;102281.50;5145277;27;45217;-84
2024/01/30 09:18:35;;;;;;;;;20.00;17.67;;;;;13.00;77.64;102288.50;5146228;27;46263;-84
2024/01/30 09:21:00;;;;;;;;;23.00;16.67;;;;;13.02;78.10;102296.47;5140675;27;45440;-83
2024/01/30 09:23:27;;;;;;;;;24.67;17.67;;;;;12.93;77.67;102265.66;5140260;27;45180;-84
2024/01/30 09:25:53;;;;;;;;;16.50;15.00;;;;;13.02;77.08;102285.78;5140366;27;45305;-85
2024/01/30 09:28:18;;;;;;;;;20.00;17.00;;;;;13.03;76.88;102299.09;5121067;27;46191;-84
2024/01/30 09:30:43;;;;;;;;;18.33;15.33;;;;;13.03;77.29;102292.88;5139560;27;45420;-85
2024/01/30 09:33:09;;;;;;;;;20.00;18.00;;;;;13.04;76.79;102310.66;5140264;27;45871;-84
2024/01/30 09:35:34;;;;;;;;;18.33;18.33;;;;;13.04;76.79;102310.66;5140618;27;45552;-83
2024/01/30 09:38:00;;;;;;;;;20.00;19.67;;;;;12.98;77.51;102301.94;5127843;27;47846;-84
2024/01/30 09:40:25;;;;;;;;;19.00;18.33;;;;;12.95;77.08;102288.69;5141538;27;45322;-84
2024/01/30 09:42:51;;;;;;;;;24.67;21.67;;;;;13.03;77.45;102306.25;5139563;27;45609;-83
2024/01/30 09:45:24;;;;;;;;;22.00;17.67;;;;;13.02;77.20;102301.78;5121269;27;45349;-84
2024/01/30 09:47:50;;;;;;;;;36.00;31.00;;;;;13.06;77.49;102319.47;5140193;27;46209;-83
2024/01/30 09:50:17;;;;;;;;;32.00;25.75;;;;;13.13;77.20;102315.59;5139078;27;45421;-83
2024/01/30 09:52:44;;;;;;;;;18.33;15.00;;;;;13.15;76.75;102303.06;5139635;27;45441;-85
2024/01/30 09:55:09;;;;;;;;;21.67;17.67;;;;;13.25;77.03;102315.16;5139740;27;45478;-84
2024/01/30 09:57:35;;;;;;;;;29.00;17.33;;;;;13.31;76.60;102324.75;5138751;27;46038;-85
2024/01/30 10:00:01;;;;;;;;;25.00;17.33;;;;;13.14;76.71;102301.31;5138782;27;45269;-86
2024/01/30 10:02:27;;;;;;;;;36.25;32.50;;;;;13.34;76.34;102329.97;5139110;27;45323;-85
2024/01/30 10:04:52;;;;;;;;;16.33;14.00;;;;;13.31;76.03;102312.25;5120298;27;45271;-85
2024/01/30 10:07:18;;;;;;;;;21.33;17.00;;;;;13.48;75.95;102338.28;5138720;27;45368;-84
2024/01/30 10:09:44;;;;;;;;;16.67;15.00;;;;;13.50;75.99;102325.72;5139146;27;45369;-84
2024/01/30 10:12:10;;;;;;;;;12.00;12.00;;;;;13.56;75.50;102329.03;5138972;27;45336;-85
2024/01/30 10:14:42;;;;;;;;;21.67;14.67;;;;;13.56;75.30;102330.84;5138917;27;45621;-86
2024/01/30 10:17:09;;;;;;;;;19.00;15.00;;;;;13.66;75.25;102339.34;5138720;27;45521;-84
2024/01/30 10:19:35;;;;;;;;;15.67;11.67;;;;;13.65;74.83;102334.94;5119647;27;45271;-83
2024/01/30 10:22:00;;;;;;;;;28.67;16.33;;;;;13.69;75.25;102345.44;5138553;27;45389;-85
2024/01/30 10:24:27;;;;;;;;;16.67;14.00;;;;;13.64;73.97;102334.06;5138748;27;45511;-84
2024/01/30 10:26:53;;;;;;;;;14.00;11.00;;;;;13.71;74.46;102345.38;5137665;27;45384;-84
2024/01/30 10:29:19;;;;;;;;;14.00;12.00;;;;;13.76;74.22;102349.59;5138493;27;45409;-85
2024/01/30 10:31:44;;;;;;;;;13.00;12.00;;;;;13.64;73.60;102338.53;5139377;27;45417;-84
2024/01/30 10:34:10;;;;;;;;;14.33;11.67;;;;;13.73;73.92;102343.50;5138811;27;45271;-85
2024/01/30 10:36:43;;;;;;;;;10.67;9.00;;;;;13.81;73.28;102360.13;5138306;27;45865;-83
2024/01/30 10:39:08;;;;;;;;;8.00;8.00;;;;;13.77;73.17;102346.00;5138464;27;45227;-85
2024/01/30 10:41:43;;;;;;;;;11.00;9.00;;;;;13.81;73.32;102362.78;5138317;27;45298;-83
2024/01/30 10:44:10;;;;;;;;;12.67;10.67;;;;;13.77;72.94;102356.69;5120165;27;45255;-85
2024/01/30 10:46:38;;;;;;;;;11.67;10.67;;;;;13.83;73.26;102366.28;5138088;27;45432;-84
2024/01/30 10:49:04;;;;;;;;;12.67;12.33;;;;;13.87;72.72;102366.06;5138815;27;45385;-84
2024/01/30 10:51:31;;;;;;;;;17.00;13.00;;;;;13.84;72.72;102358.19;5138840;27;45466;-84
2024/01/30 10:53:57;;;;;;;;;13.00;10.33;;;;;13.90;72.99;102366.88;5138693;27;45598;-84
2024/01/30 10:56:23;;;;;;;;;17.33;14.33;;;;;13.98;72.43;102367.44;5138111;27;45962;-84
2024/01/30 10:58:53;;;;;;;;;10.33;10.33;;;;;13.95;71.73;102354.19;5138820;27;45465;-87
2024/01/30 11:01:23;;;;;;;;;14.00;10.33;;;;;13.93;71.88;102351.56;5120157;27;45450;-84
2024/01/30 11:03:56;;;;;;;;;15.33;12.67;;;;;14.04;71.48;102372.50;5120905;27;45456;-84
2024/01/30 11:06:25;;;;;;;;;9.33;9.33;;;;;14.08;71.55;102372.34;5141837;27;45276;-83